Time;durP1;ratioP1;P1;durP2;ratioP2;P2;SDS_P1;SDS_P2;PMS_P1;PMS_P2;Temp;Humidity;BMP_temperature;BMP_pressure;BME280_temperature;BME280_humidity;BME280_pressure;Samples;Min_cycle;Max_cycle;Signal;HPM_P1;HPM_P2
2023/01/27 00:00:27;;;;;;;7.30;0.90;;;19.40;28.30;;;;;;5064690;28;20091;-69
2023/01/27 00:02:54;;;;;;;2.08;0.70;;;19.30;28.30;;;;;;5058430;28;20066;-68
2023/01/27 00:05:21;;;;;;;1.10;0.60;;;19.30;28.50;;;;;;5061155;28;20107;-69
2023/01/27 00:07:48;;;;;;;4.07;1.20;;;19.20;28.70;;;;;;5064185;28;20050;-68
2023/01/27 00:10:18;;;;;;;6.43;0.80;;;19.20;28.90;;;;;;5066039;28;20476;-68
2023/01/27 00:15:31;;;;;;;3.17;0.80;;;19.10;29.40;;;;;;5067848;28;20104;-69
2023/01/27 00:17:58;;;;;;;8.13;0.85;;;19.00;29.60;;;;;;5064977;28;20135;-70
2023/01/27 00:26:05;;;;;;;4.85;0.93;;;18.90;31.50;;;;;;5061765;28;20479;-67
2023/01/27 00:28:33;;;;;;;9.32;1.20;;;18.80;31.60;;;;;;5061743;28;20063;-68
2023/01/27 00:30:59;;;;;;;11.10;1.30;;;18.70;32.20;;;;;;5065810;28;20065;-68
2023/01/27 00:33:26;;;;;;;9.38;1.25;;;18.60;32.10;;;;;;5064638;28;20057;-69
2023/01/27 00:36:05;;;;;;;9.63;0.88;;;18.40;31.80;;;;;;5062582;28;20070;-65
2023/01/27 00:38:39;;;;;;;7.70;1.48;;;18.40;31.60;;;;;;5065480;28;20549;-67
2023/01/27 00:41:18;;;;;;;5.50;0.93;;;18.20;31.70;;;;;;5044562;28;20069;-68
2023/01/27 00:43:45;;;;;;;12.05;1.55;;;18.10;32.00;;;;;;5065559;28;20057;-69
2023/01/27 00:46:13;;;;;;;6.05;1.20;;;18.00;32.50;;;;;;5060712;28;20058;-68
2023/01/27 00:48:39;;;;;;;5.93;1.27;;;18.00;32.80;;;;;;5065415;28;20165;-70
2023/01/27 00:51:06;;;;;;;4.80;1.10;;;17.90;33.20;;;;;;5062571;28;20074;-67
2023/01/27 00:53:32;;;;;;;8.77;1.90;;;17.80;33.60;;;;;;5063818;28;20063;-66
2023/01/27 00:55:58;;;;;;;13.60;1.50;;;17.70;33.60;;;;;;5064896;28;20096;-68
2023/01/27 00:58:26;;;;;;;4.10;1.00;;;17.60;34.00;;;;;;5060653;28;20077;-68
2023/01/27 01:00:58;;;;;;;2.25;1.10;;;17.50;34.30;;;;;;5065322;28;20143;-68
2023/01/27 01:03:25;;;;;;;7.70;1.00;;;17.50;34.50;;;;;;5060355;28;20086;-67
2023/01/27 01:05:52;;;;;;;5.85;1.00;;;17.30;34.70;;;;;;5059994;28;20529;-68
2023/01/27 01:08:18;;;;;;;12.65;1.17;;;17.30;34.60;;;;;;5062744;28;20133;-67
2023/01/27 01:10:45;;;;;;;14.25;1.45;;;17.20;35.20;;;;;;5061323;28;20533;-67
2023/01/27 01:13:11;;;;;;;14.88;1.63;;;17.10;35.20;;;;;;5064951;28;20493;-67
2023/01/27 01:15:39;;;;;;;11.18;1.63;;;17.00;35.30;;;;;;5064712;28;20072;-66
2023/01/27 01:18:08;;;;;;;8.73;1.20;;;16.90;35.40;;;;;;5061845;28;20508;-67
2023/01/27 01:20:40;;;;;;;11.27;1.33;;;16.80;35.50;;;;;;5064379;28;20108;-67
2023/01/27 01:23:07;;;;;;;12.88;3.03;;;16.70;35.80;;;;;;5060069;28;20086;-67
2023/01/27 01:25:34;;;;;;;6.90;1.58;;;16.60;36.00;;;;;;5064864;28;20419;-67
2023/01/27 01:28:01;;;;;;;10.90;4.20;;;16.50;35.80;;;;;;5067683;28;20064;-68
2023/01/27 01:30:28;;;;;;;11.27;1.38;;;16.50;36.10;;;;;;5059640;28;20452;-67
2023/01/27 01:32:55;;;;;;;4.75;1.05;;;16.40;36.10;;;;;;5051040;28;20118;-68
2023/01/27 01:35:23;;;;;;;8.70;1.30;;;16.30;36.00;;;;;;5063497;28;20451;-68
2023/01/27 01:37:51;;;;;;;7.22;1.40;;;16.20;35.90;;;;;;5061636;28;20075;-66
2023/01/27 01:40:18;;;;;;;10.65;1.20;;;16.20;36.30;;;;;;5063435;28;20148;-69
2023/01/27 01:42:56;;;;;;;10.25;1.73;;;16.10;36.20;;;;;;5043026;28;20127;-67
2023/01/27 01:45:35;;;;;;;10.45;2.33;;;16.10;36.30;;;;;;5062164;28;20088;-68
2023/01/27 01:48:13;;;;;;;10.63;2.25;;;16.00;36.20;;;;;;5063890;28;20073;-68
2023/01/27 01:50:42;;;;;;;6.85;1.98;;;15.90;36.50;;;;;;5062580;28;20080;-67
2023/01/27 01:53:10;;;;;;;15.32;2.38;;;15.80;36.50;;;;;;5064155;28;20110;-67
2023/01/27 01:55:38;;;;;;;6.88;1.77;;;15.70;36.60;;;;;;5065326;28;20149;-66
2023/01/27 01:58:07;;;;;;;8.93;1.70;;;15.60;36.60;;;;;;5058797;28;20487;-67
2023/01/27 02:00:34;;;;;;;14.00;1.55;;;15.50;36.90;;;;;;5066394;28;20073;-66
2023/01/27 02:03:02;;;;;;;8.10;1.70;;;15.50;36.70;;;;;;5060417;28;20100;-67
2023/01/27 02:05:41;;;;;;;13.02;2.53;;;15.50;36.90;;;;;;5059058;28;20083;-67
2023/01/27 02:08:10;;;;;;;14.90;2.78;;;15.40;37.20;;;;;;5043852;28;20518;-69
2023/01/27 02:10:37;;;;;;;17.13;2.58;;;15.40;37.20;;;;;;5044428;28;20123;-68
2023/01/27 02:13:03;;;;;;;11.10;2.20;;;15.30;37.20;;;;;;5061708;28;20076;-69
2023/01/27 02:15:30;;;;;;;14.30;2.50;;;15.30;37.50;;;;;;5060285;28;20084;-66
2023/01/27 02:17:58;;;;;;;5.18;1.83;;;15.20;37.00;;;;;;5059168;28;20109;-68
2023/01/27 02:20:38;;;;;;;11.60;1.60;;;15.20;36.90;;;;;;5061362;28;20486;-67
2023/01/27 02:23:14;;;;;;;15.05;1.35;;;15.20;36.70;;;;;;5061244;28;20433;-67
2023/01/27 02:25:43;;;;;;;9.47;1.97;;;15.10;36.40;;;;;;5057810;28;20082;-67
2023/01/27 02:28:09;;;;;;;16.08;2.17;;;15.10;36.40;;;;;;5058680;28;20064;-65
2023/01/27 02:30:35;;;;;;;;;;;15.00;36.20;;;;;;5057396;28;20072;-68
2023/01/27 02:33:02;;;;;;;15.07;2.30;;;15.00;36.10;;;;;;5059768;28;19968;-66
2023/01/27 02:35:33;;;;;;;;;;;14.90;36.20;;;;;;5058434;28;20088;-66
2023/01/27 02:38:00;;;;;;;18.70;3.00;;;14.90;36.60;;;;;;5063263;28;19978;-68
2023/01/27 02:40:28;;;;;;;14.70;2.20;;;14.90;36.60;;;;;;5062631;28;20064;-67
2023/01/27 02:42:56;;;;;;;27.17;2.63;;;14.90;36.60;;;;;;5063363;28;20078;-66
2023/01/27 02:45:23;;;;;;;20.25;3.00;;;14.80;36.90;;;;;;5058028;28;20162;-66
2023/01/27 02:47:50;;;;;;;25.77;2.83;;;14.60;37.10;;;;;;5060838;28;20550;-66
2023/01/27 02:50:16;;;;;;;;;;;14.60;37.60;;;;;;5060567;28;20061;-67
2023/01/27 02:52:42;;;;;;;24.80;3.50;;;14.50;38.00;;;;;;5060582;28;20219;-68
2023/01/27 02:55:09;;;;;;;;;;;14.40;38.20;;;;;;5060979;28;20125;-67
2023/01/27 02:57:35;;;;;;;22.95;3.75;;;14.40;39.50;;;;;;5091816;23;20008;-67
2023/01/27 03:00:01;;;;;;;;;;;14.30;39.60;;;;;;5112969;28;20069;-69
2023/01/27 03:02:29;;;;;;;24.70;3.70;;;14.20;40.20;;;;;;5112417;27;20296;-66
2023/01/27 03:05:02;;;;;;;23.65;4.28;;;14.10;40.20;;;;;;5111303;27;20103;-70
2023/01/27 03:07:28;;;;;;;43.33;4.30;;;14.10;40.60;;;;;;5108856;28;20093;-67
2023/01/27 03:09:54;;;;;;;;;;;13.90;41.40;;;;;;5113398;28;20064;-69
2023/01/27 03:12:20;;;;;;;23.13;3.67;;;13.80;40.90;;;;;;5110706;28;20435;-68
2023/01/27 03:20:22;;;;;;;26.52;4.13;;;13.50;41.30;;;;;;5109837;28;20094;-70
2023/01/27 03:22:49;;;;;;;18.00;4.25;;;13.50;41.80;;;;;;5111414;28;20156;-68
2023/01/27 03:25:16;;;;;;;28.55;4.43;;;13.40;41.70;;;;;;5106342;28;20080;-66
2023/01/27 03:27:42;;;;;;;28.75;4.75;;;13.30;41.40;;;;;;5110245;28;20100;-70
2023/01/27 03:30:10;;;;;;;31.80;4.40;;;13.30;41.80;;;;;;5111602;28;20439;-67
2023/01/27 03:32:36;;;;;;;38.88;6.78;;;13.20;41.90;;;;;;5108802;27;20144;-67
2023/01/27 03:35:03;;;;;;;35.63;12.05;;;13.10;41.80;;;;;;5112619;28;20076;-69
2023/01/27 03:48:35;;;;;;;33.70;8.13;;;12.90;42.30;;;;;;5104365;28;20087;-66
2023/01/27 03:51:04;;;;;;;53.10;10.15;;;12.90;43.60;;;;;;5104052;28;20551;-66
2023/01/27 03:53:31;;;;;;;39.88;9.65;;;12.80;43.70;;;;;;5103617;28;20068;-67
2023/01/27 03:55:57;;;;;;;47.67;9.40;;;12.80;42.80;;;;;;5108454;28;20060;-68
2023/01/27 03:58:27;;;;;;;49.08;8.57;;;12.80;42.50;;;;;;5111429;28;20457;-68
2023/01/27 04:00:56;;;;;;;45.28;8.68;;;12.80;42.50;;;;;;5105455;28;20066;-68
2023/01/27 04:08:59;;;;;;;48.45;9.15;;;12.70;42.50;;;;;;5106940;28;20068;-69
2023/01/27 04:14:11;;;;;;;58.28;10.55;;;12.70;42.70;;;;;;5106433;28;20573;-69
2023/01/27 04:16:38;;;;;;;44.33;8.77;;;12.60;43.50;;;;;;5106366;28;20443;-70
2023/01/27 04:19:07;;;;;;;52.83;9.38;;;12.60;43.50;;;;;;5110054;28;20071;-69
2023/01/27 04:21:34;;;;;;;57.20;10.38;;;12.60;44.30;;;;;;5107616;28;20079;-70
2023/01/27 04:24:00;;;;;;;;;;;12.60;44.10;;;;;;5106834;28;20069;-69
2023/01/27 04:26:32;;;;;;;39.28;8.90;;;12.50;44.80;;;;;;5107144;28;20050;-68
2023/01/27 04:28:59;;;;;;;54.20;10.35;;;12.50;44.70;;;;;;5107768;28;20069;-67
2023/01/27 04:31:26;;;;;;;44.60;9.20;;;12.30;44.70;;;;;;5103757;28;20091;-68
2023/01/27 04:33:52;;;;;;;;;;;12.20;45.00;;;;;;5106206;28;20068;-71
2023/01/27 04:36:18;;;;;;;41.58;9.43;;;12.10;45.10;;;;;;5107800;28;19957;-70
2023/01/27 04:38:45;;;;;;;;;;;12.20;45.90;;;;;;5106769;28;20428;-67
2023/01/27 04:41:11;;;;;;;44.60;8.27;;;12.10;45.80;;;;;;5110251;28;19953;-68
2023/01/27 04:43:37;;;;;;;;;;;12.10;46.50;;;;;;5108279;28;20057;-67
2023/01/27 04:46:04;;;;;;;53.50;9.60;;;12.00;46.00;;;;;;5105061;28;19969;-68
2023/01/27 04:48:30;;;;;;;45.75;8.27;;;11.90;45.80;;;;;;5103143;28;20077;-69
2023/01/27 04:50:56;;;;;;;61.65;8.85;;;11.80;45.40;;;;;;5107655;28;20080;-69
2023/01/27 04:53:22;;;;;;;;;;;11.80;45.30;;;;;;5105895;28;20073;-69
2023/01/27 04:55:49;;;;;;;51.42;8.50;;;11.70;46.50;;;;;;5107756;28;20407;-70
2023/01/27 04:58:17;;;;;;;45.10;8.40;;;11.80;46.80;;;;;;5105681;28;20099;-71
2023/01/27 05:00:44;;;;;;;43.20;8.15;;;11.80;46.00;;;;;;5104242;28;20070;-69
2023/01/27 05:03:11;;;;;;;48.03;8.48;;;11.70;47.40;;;;;;5107203;28;20068;-68
2023/01/27 05:05:38;;;;;;;39.17;8.68;;;11.60;46.20;;;;;;5111449;28;20085;-70
2023/01/27 05:08:06;;;;;;;67.90;10.68;;;11.60;47.00;;;;;;5105947;28;20073;-68
2023/01/27 05:10:33;;;;;;;51.42;10.73;;;11.40;46.80;;;;;;5105867;28;20088;-69
2023/01/27 05:13:00;;;;;;;70.15;13.65;;;11.40;47.20;;;;;;5105208;28;20066;-68
2023/01/27 05:15:28;;;;;;;51.90;14.50;;;11.30;47.20;;;;;;5104743;28;20519;-69
2023/01/27 05:17:54;;;;;;;53.45;13.23;;;11.10;46.70;;;;;;5108807;28;20073;-68
2023/01/27 05:20:21;;;;;;;60.22;14.55;;;11.20;47.00;;;;;;5106792;28;20077;-67
2023/01/27 05:22:49;;;;;;;51.00;13.32;;;11.20;47.30;;;;;;5104246;28;20084;-70
2023/01/27 05:25:16;;;;;;;71.32;15.30;;;11.30;48.20;;;;;;5103431;28;20175;-70
2023/01/27 05:27:44;;;;;;;63.75;14.35;;;11.20;48.10;;;;;;5103974;28;20142;-67
2023/01/27 05:30:10;;;;;;;;;;;11.20;48.50;;;;;;5102586;28;20085;-69
2023/01/27 05:32:37;;;;;;;59.85;15.68;;;11.20;48.50;;;;;;5110849;28;19954;-69
2023/01/27 05:35:03;;;;;;;71.90;17.23;;;11.10;48.10;;;;;;5099168;27;20627;-70
2023/01/27 05:37:30;;;;;;;67.07;15.35;;;11.00;48.30;;;;;;5100353;28;20097;-70
2023/01/27 05:39:58;;;;;;;63.13;16.20;;;11.00;48.20;;;;;;5105570;28;20575;-68
2023/01/27 05:42:24;;;;;;;62.47;16.02;;;11.00;48.20;;;;;;5106538;28;20066;-68
2023/01/27 05:44:50;;;;;;;;;;;11.00;47.60;;;;;;5106977;28;20142;-70
2023/01/27 05:47:17;;;;;;;73.70;17.48;;;11.10;47.90;;;;;;5102924;28;19974;-69
2023/01/27 05:49:42;;;;;;;;;;;11.00;48.80;;;;;;5104942;28;20072;-69
2023/01/27 05:52:09;;;;;;;74.30;16.63;;;11.00;48.70;;;;;;5103697;28;20411;-69
2023/01/27 05:54:35;;;;;;;;;;;10.90;49.70;;;;;;5109352;28;20457;-68
2023/01/27 05:57:01;;;;;;;67.40;16.15;;;10.90;49.00;;;;;;5106457;28;20412;-70
2023/01/27 05:59:27;;;;;;;;;;;10.80;49.00;;;;;;5105659;28;20110;-68
2023/01/27 06:01:54;;;;;;;99.88;27.25;;;10.80;48.30;;;;;;5104662;28;20385;-69
2023/01/27 06:04:20;;;;;;;;;;;10.80;48.20;;;;;;5106258;28;20084;-71
2023/01/27 06:06:46;;;;;;;99.03;27.35;;;10.70;48.20;;;;;;5104123;28;20014;-66
2023/01/27 06:09:12;;;;;;;;;;;10.80;48.90;;;;;;5105564;28;20068;-67
2023/01/27 06:11:39;;;;;;;95.93;26.20;;;10.90;48.50;;;;;;5104414;28;20411;-69
2023/01/27 06:14:05;;;;;;;;;;;10.80;48.50;;;;;;5105837;28;20090;-68
2023/01/27 06:16:32;;;;;;;74.83;22.33;;;10.80;47.80;;;;;;5105709;28;20329;-70
2023/01/27 06:18:58;;;;;;;;;;;10.80;47.80;;;;;;5105930;28;20064;-72
2023/01/27 06:21:25;;;;;;;70.10;19.97;;;10.80;48.20;;;;;;5098775;28;20041;-67
2023/01/27 06:23:52;;;;;;;;;;;10.80;48.50;;;;;;5104546;28;20064;-67
2023/01/27 06:26:19;;;;;;;75.78;18.83;;;10.70;48.30;;;;;;5104410;28;19964;-68
2023/01/27 06:28:46;;;;;;;71.72;19.52;;;10.70;48.70;;;;;;5103193;28;20070;-68
2023/01/27 06:31:18;;;;;;;98.57;19.90;;;10.60;49.00;;;;;;5104109;28;20065;-71
2023/01/27 06:33:45;;;;;;;93.13;19.73;;;10.60;49.80;;;;;;5104559;28;20208;-69
2023/01/27 06:36:13;;;;;;;68.35;19.92;;;10.60;49.60;;;;;;5106056;28;20066;-69
2023/01/27 06:38:40;;;;;;;73.55;16.75;;;10.50;49.20;;;;;;5104235;28;20085;-69
2023/01/27 06:41:07;;;;;;;88.38;19.25;;;10.50;48.30;;;;;;5104626;28;20066;-69
2023/01/27 06:43:33;;;;;;;80.70;18.52;;;10.60;48.40;;;;;;5104677;28;20069;-68
2023/01/27 06:46:00;;;;;;;71.32;17.45;;;10.60;48.10;;;;;;5105652;28;20491;-70
2023/01/27 06:48:27;;;;;;;;;;;10.60;48.40;;;;;;5102121;28;20186;-71
2023/01/27 06:50:55;;;;;;;70.90;18.90;;;10.50;49.00;;;;;;5103927;28;19999;-69
2023/01/27 06:53:21;;;;;;;74.20;19.30;;;10.50;48.60;;;;;;5100981;28;20115;-68
2023/01/27 06:55:48;;;;;;;59.65;16.10;;;10.50;48.40;;;;;;5103929;28;20596;-71
2023/01/27 06:58:14;;;;;;;;;;;10.50;48.40;;;;;;5108936;28;20110;-70
2023/01/27 07:00:41;;;;;;;76.38;17.77;;;10.40;48.20;;;;;;5103254;28;19957;-70
2023/01/27 07:03:11;;;;;;;67.70;16.08;;;10.40;48.60;;;;;;5105051;28;20066;-71
2023/01/27 07:05:40;;;;;;;66.50;16.65;;;10.50;48.30;;;;;;5107728;28;20088;-71
2023/01/27 07:08:07;;;;;;;72.85;17.17;;;10.50;47.80;;;;;;5105366;28;20145;-71
2023/01/27 07:10:33;;;;;;;65.95;15.25;;;10.50;48.10;;;;;;5102866;28;20081;-68
2023/01/27 07:13:12;;;;;;;;;;;10.40;48.20;;;;;;5104985;28;20093;-71
2023/01/27 07:15:39;;;;;;;77.40;15.60;;;10.40;47.90;;;;;;5102497;28;20415;-69
2023/01/27 07:18:06;;;;;;;59.95;14.82;;;10.30;47.70;;;;;;5102786;28;20126;-68
2023/01/27 07:20:33;;;;;;;54.67;15.45;;;10.30;47.60;;;;;;5102495;28;20101;-70
2023/01/27 07:23:01;;;;;;;56.35;14.27;;;10.30;48.60;;;;;;5103893;28;20098;-69
2023/01/27 07:25:29;;;;;;;41.90;14.93;;;10.30;48.40;;;;;;5103405;28;20595;-68
2023/01/27 07:28:00;;;;;;;42.40;12.35;;;10.20;47.90;;;;;;5106530;28;20074;-68
2023/01/27 07:30:27;;;;;;;43.97;10.75;;;10.30;46.10;;;;;;5106443;28;20075;-69
2023/01/27 07:32:54;;;;;;;32.95;11.38;;;10.40;45.50;;;;;;5110258;28;20083;-68
2023/01/27 07:35:22;;;;;;;35.92;10.32;;;10.50;45.00;;;;;;5109027;28;20109;-69
2023/01/27 07:37:48;;;;;;;33.17;10.65;;;10.50;45.20;;;;;;5107284;28;20089;-67
2023/01/27 07:40:14;;;;;;;;;;;10.50;45.80;;;;;;5106575;28;20455;-69
2023/01/27 07:42:41;;;;;;;36.15;9.65;;;10.60;45.20;;;;;;5108360;28;19999;-66
2023/01/27 07:45:08;;;;;;;40.10;10.10;;;10.50;45.00;;;;;;5113418;28;20428;-70
2023/01/27 07:47:34;;;;;;;46.30;9.80;;;10.40;45.10;;;;;;5107533;28;20078;-67
2023/01/27 07:50:01;;;;;;;29.88;8.25;;;10.40;45.70;;;;;;5105806;28;20132;-68
2023/01/27 07:52:27;;;;;;;;;;;10.40;46.40;;;;;;5107408;28;20056;-67
2023/01/27 07:54:53;;;;;;;30.88;7.10;;;10.40;45.60;;;;;;5105163;27;20096;-68
2023/01/27 07:57:19;;;;;;;;;;;10.40;45.60;;;;;;5107266;28;20085;-67
2023/01/27 07:59:46;;;;;;;40.38;10.13;;;10.40;46.00;;;;;;5105657;28;20043;-68
2023/01/27 08:02:13;;;;;;;39.95;11.02;;;10.20;46.80;;;;;;5104954;28;20069;-66
2023/01/27 08:04:39;;;;;;;29.92;9.02;;;10.20;46.80;;;;;;5110118;28;20129;-68
2023/01/27 08:07:06;;;;;;;27.88;9.32;;;10.20;46.80;;;;;;5103423;28;20429;-67
2023/01/27 08:09:32;;;;;;;41.63;10.05;;;10.10;46.90;;;;;;5099202;28;20145;-67
2023/01/27 08:11:58;;;;;;;;;;;10.20;47.70;;;;;;5108075;28;20090;-68
2023/01/27 08:14:24;;;;;;;40.90;9.70;;;10.20;48.00;;;;;;5107770;28;19993;-66
2023/01/27 08:16:50;;;;;;;;;;;10.20;48.40;;;;;;5107321;28;20119;-68
2023/01/27 08:19:17;;;;;;;30.90;10.00;;;10.20;48.40;;;;;;5110220;27;19989;-69
2023/01/27 08:21:43;;;;;;;45.35;10.98;;;10.10;47.70;;;;;;5107875;28;20086;-67
2023/01/27 08:24:11;;;;;;;;;;;10.10;48.70;;;;;;5105400;28;20077;-67
2023/01/27 08:26:38;;;;;;;31.80;10.65;;;10.00;49.40;;;;;;5111459;28;20321;-67
2023/01/27 08:29:04;;;;;;;43.13;12.10;;;9.90;49.70;;;;;;5104496;28;20158;-67
2023/01/27 08:31:30;;;;;;;;;;;9.90;50.40;;;;;;5109502;28;20594;-66
2023/01/27 08:33:57;;;;;;;41.53;13.10;;;9.90;49.10;;;;;;5108098;28;20307;-68
2023/01/27 08:36:23;;;;;;;;;;;9.80;49.30;;;;;;5108675;28;20073;-65
2023/01/27 08:38:50;;;;;;;39.90;12.90;;;9.80;49.30;;;;;;5103942;28;19962;-67
2023/01/27 08:41:22;;;;;;;49.08;14.88;;;9.70;50.00;;;;;;5106797;28;20073;-68
2023/01/27 08:43:49;;;;;;;49.10;16.67;;;9.70;49.90;;;;;;5107027;28;20548;-67
2023/01/27 08:46:16;;;;;;;64.05;20.75;;;9.60;49.90;;;;;;5105607;28;20097;-68
2023/01/27 08:48:43;;;;;;;61.97;19.38;;;9.40;50.10;;;;;;5102486;28;20149;-67
2023/01/27 08:51:12;;;;;;;58.28;18.58;;;9.50;49.90;;;;;;5106569;28;20068;-68
2023/01/27 08:53:38;;;;;;;60.15;18.02;;;9.40;50.00;;;;;;5104789;28;20136;-68
2023/01/27 08:56:09;;;;;;;50.30;16.63;;;9.50;50.80;;;;;;5105777;28;20448;-67
2023/01/27 08:58:36;;;;;;;54.90;16.50;;;9.50;50.00;;;;;;5106306;28;20511;-68
2023/01/27 09:01:04;;;;;;;65.78;18.00;;;9.40;49.70;;;;;;5104782;28;20534;-66
2023/01/27 09:03:32;;;;;;;58.75;18.48;;;9.30;50.70;;;;;;5106814;28;20089;-66
2023/01/27 09:05:59;;;;;;;54.25;16.90;;;9.40;50.10;;;;;;5106169;28;20080;-68
2023/01/27 09:08:27;;;;;;;44.70;16.50;;;9.20;50.70;;;;;;5105689;28;20066;-66
2023/01/27 09:10:54;;;;;;;58.03;17.55;;;9.20;51.20;;;;;;5106949;28;20071;-68
2023/01/27 09:13:23;;;;;;;48.65;17.20;;;9.30;51.50;;;;;;5106332;28;20070;-68
2023/01/27 09:15:53;;;;;;;55.70;18.27;;;9.30;51.40;;;;;;5106501;28;20071;-67
2023/01/27 09:18:19;;;;;;;66.00;19.45;;;9.20;51.00;;;;;;5106246;28;20073;-67
2023/01/27 09:20:46;;;;;;;45.17;17.67;;;9.20;51.60;;;;;;5097421;28;20167;-69
2023/01/27 09:23:12;;;;;;;60.83;16.60;;;9.20;51.60;;;;;;5103339;28;20071;-68
2023/01/27 09:25:38;;;;;;;;;;;9.20;51.10;;;;;;5104591;28;20450;-68
2023/01/27 09:28:08;;;;;;;56.22;17.20;;;9.20;50.80;;;;;;5104501;28;19955;-66
2023/01/27 09:30:35;;;;;;;65.60;18.92;;;9.20;50.40;;;;;;5109426;28;20060;-65
2023/01/27 09:33:01;;;;;;;;;;;9.30;50.70;;;;;;5107119;28;20119;-68
2023/01/27 09:35:55;;;;;;;56.30;17.38;;;9.20;50.80;;;;;;5106027;28;20008;-67
2023/01/27 09:38:24;;;;;;;47.88;15.68;;;9.20;51.90;;;;;;5090122;28;20161;-65
2023/01/27 09:41:05;;;;;;;51.88;16.08;;;9.10;51.00;;;;;;5101815;28;20597;-67
2023/01/27 09:43:49;;;;;;;51.42;18.13;;;9.00;51.10;;;;;;5106144;28;20527;-67
2023/01/27 09:46:37;;;;;;;50.42;17.13;;;9.00;51.20;;;;;;5102241;28;20088;-68
2023/01/27 09:49:03;;;;;;;;;;;9.10;51.60;;;;;;5102913;28;20090;-67
2023/01/27 09:51:52;;;;;;;52.70;19.67;;;9.10;51.60;;;;;;5103123;28;19958;-68
2023/01/27 09:54:39;;;;;;;60.05;20.13;;;9.00;51.40;;;;;;5103817;28;20080;-66
2023/01/27 09:57:19;;;;;;;62.28;20.05;;;8.90;52.50;;;;;;5102356;28;20116;-66
2023/01/27 09:59:49;;;;;;;58.25;20.98;;;8.90;52.50;;;;;;5102792;28;20142;-67
2023/01/27 10:03:09;;;;;;;55.45;20.05;;;8.90;52.40;;;;;;5105674;28;20149;-67
2023/01/27 10:05:47;;;;;;;57.88;21.08;;;8.90;52.70;;;;;;5032494;28;20097;-67
2023/01/27 10:08:32;;;;;;;62.22;21.83;;;8.90;52.30;;;;;;5031298;28;20072;-65
2023/01/27 10:11:27;;;;;;;60.70;19.58;;;8.90;52.00;;;;;;5032434;28;20150;-65
2023/01/27 10:14:20;;;;;;;57.35;19.98;;;8.90;52.50;;;;;;5035550;28;20180;-67
2023/01/27 10:17:41;;;;;;;49.80;17.88;;;8.80;52.00;;;;;;5029780;28;20202;-65
2023/01/27 10:20:16;;;;;;;47.67;18.70;;;8.90;52.10;;;;;;4971406;28;20104;-66
2023/01/27 10:22:55;;;;;;;49.95;18.15;;;8.90;53.30;;;;;;4979268;28;20426;-68
2023/01/27 10:25:42;;;;;;;51.33;17.70;;;8.90;52.50;;;;;;4976757;28;20116;-67
2023/01/27 10:28:20;;;;;;;39.20;16.95;;;8.90;52.00;;;;;;4972270;28;20081;-68
2023/01/27 10:31:04;;;;;;;43.80;16.95;;;8.90;51.90;;;;;;4971441;28;20123;-67
2023/01/27 10:33:52;;;;;;;46.22;16.40;;;8.90;52.10;;;;;;4970862;28;20093;-68
2023/01/27 10:36:29;;;;;;;48.60;16.00;;;9.00;52.70;;;;;;4975886;28;20083;-66
2023/01/27 10:39:32;;;;;;;37.38;14.65;;;9.00;52.60;;;;;;4995977;28;20674;-66
2023/01/27 10:42:19;;;;;;;34.83;13.38;;;8.90;53.20;;;;;;5026242;28;20095;-67
2023/01/27 10:45:06;;;;;;;35.38;13.48;;;8.80;53.20;;;;;;5033032;28;20118;-68
2023/01/27 10:47:47;;;;;;;32.83;12.88;;;8.70;53.70;;;;;;5021699;28;20125;-67
2023/01/27 10:50:29;;;;;;;37.28;13.70;;;8.80;53.70;;;;;;5033945;28;20092;-66
2023/01/27 10:53:03;;;;;;;33.53;13.00;;;8.80;53.30;;;;;;5027074;28;20160;-67
2023/01/27 10:55:39;;;;;;;51.90;14.10;;;8.70;53.20;;;;;;5103695;28;20412;-67
2023/01/27 10:58:30;;;;;;;39.70;13.00;;;8.60;53.70;;;;;;5101182;28;20540;-67
2023/01/27 11:00:59;;;;;;;51.97;13.40;;;8.50;54.30;;;;;;5101713;28;20083;-66
2023/01/27 11:03:48;;;;;;;43.22;11.82;;;8.60;54.10;;;;;;5099946;28;20087;-65
2023/01/27 11:06:29;;;;;;;38.55;12.60;;;8.60;54.00;;;;;;5101521;28;20095;-66
2023/01/27 11:09:16;;;;;;;48.22;13.55;;;8.70;53.90;;;;;;5105344;28;20066;-68
2023/01/27 11:11:44;;;;;;;196.13;20.63;;;8.70;53.60;;;;;;5101563;28;20066;-67
2023/01/27 11:14:31;;;;;;;87.90;15.55;;;8.60;53.50;;;;;;5102919;28;20066;-68
2023/01/27 11:17:30;;;;;;;48.80;13.27;;;8.60;54.00;;;;;;5102055;28;20141;-66
2023/01/27 11:20:23;;;;;;;49.15;13.18;;;8.50;54.10;;;;;;5104800;28;20066;-66
2023/01/27 11:23:18;;;;;;;46.72;13.50;;;8.50;54.30;;;;;;5105293;28;20587;-67
2023/01/27 11:25:57;;;;;;;52.85;14.00;;;8.50;54.40;;;;;;5104366;28;20135;-66
2023/01/27 11:28:49;;;;;;;40.70;13.48;;;8.50;54.50;;;;;;5101638;28;20070;-68
2023/01/27 11:31:21;;;;;;;39.50;13.30;;;8.50;54.20;;;;;;5097366;28;20173;-65
2023/01/27 11:34:04;;;;;;;30.80;12.98;;;8.40;54.40;;;;;;5093321;28;20542;-66
2023/01/27 11:36:31;;;;;;;40.28;13.95;;;8.40;55.20;;;;;;5102280;28;20077;-67
2023/01/27 11:38:57;;;;;;;46.47;14.45;;;8.10;56.80;;;;;;5104051;28;20066;-68
2023/01/27 11:41:25;;;;;;;30.10;12.50;;;8.20;56.30;;;;;;5104699;28;20075;-67
2023/01/27 11:43:51;;;;;;;42.92;13.40;;;8.20;56.10;;;;;;5103300;28;21681;-68
2023/01/27 11:46:23;;;;;;;45.80;14.68;;;8.30;56.00;;;;;;5103709;28;20448;-67
2023/01/27 11:48:56;;;;;;;35.60;14.43;;;8.30;55.40;;;;;;5101908;28;20610;-68
2023/01/27 11:51:27;;;;;;;38.83;13.93;;;8.30;54.70;;;;;;5104945;28;20067;-67
2023/01/27 11:54:13;;;;;;;35.08;13.27;;;8.30;55.00;;;;;;5102592;28;20091;-68
2023/01/27 11:56:43;;;;;;;43.38;13.82;;;8.30;55.50;;;;;;5102672;28;20442;-68
2023/01/27 11:59:20;;;;;;;37.83;15.73;;;8.20;55.70;;;;;;5102811;28;20134;-66
2023/01/27 12:02:22;;;;;;;37.05;14.35;;;8.10;56.10;;;;;;5100901;28;20161;-67
2023/01/27 12:05:01;;;;;;;47.97;15.73;;;8.30;56.00;;;;;;5031467;28;20091;-67
2023/01/27 12:07:59;;;;;;;33.10;12.95;;;8.30;55.30;;;;;;5035701;28;20099;-67
2023/01/27 12:10:31;;;;;;;37.83;14.77;;;8.30;55.40;;;;;;5028433;28;20552;-67
2023/01/27 12:13:07;;;;;;;36.05;14.70;;;8.30;56.00;;;;;;5034740;28;20148;-67
2023/01/27 12:15:35;;;;;;;44.90;15.00;;;8.30;56.20;;;;;;5036832;28;20110;-66
2023/01/27 12:18:13;;;;;;;43.67;14.32;;;8.30;56.00;;;;;;5033245;28;20552;-67
2023/01/27 12:20:49;;;;;;;41.22;14.55;;;8.30;55.80;;;;;;5035720;28;20537;-65
2023/01/27 12:23:33;;;;;;;45.88;14.70;;;8.30;56.50;;;;;;5037765;28;20499;-67
2023/01/27 12:26:02;;;;;;;44.88;14.38;;;8.20;56.40;;;;;;5036406;28;20584;-67
2023/01/27 12:28:34;;;;;;;50.35;15.20;;;8.20;56.50;;;;;;5038314;28;20120;-66
2023/01/27 12:31:12;;;;;;;36.50;14.32;;;8.10;56.60;;;;;;5039985;28;20117;-67
2023/01/27 12:33:44;;;;;;;43.88;13.80;;;8.10;56.80;;;;;;5031765;28;20080;-68
2023/01/27 12:36:23;;;;;;;49.10;15.30;;;7.90;57.40;;;;;;5039644;28;20120;-68
2023/01/27 12:38:59;;;;;;;50.45;15.15;;;7.90;57.00;;;;;;5033252;28;20084;-66
2023/01/27 12:41:30;;;;;;;42.45;15.88;;;7.80;56.90;;;;;;5069836;28;20078;-65
2023/01/27 12:44:15;;;;;;;50.10;15.38;;;7.90;57.10;;;;;;5105802;28;20100;-66
2023/01/27 12:47:01;;;;;;;43.05;15.45;;;7.90;57.30;;;;;;5108098;28;20086;-67
2023/01/27 12:49:41;;;;;;;42.20;15.25;;;7.80;57.40;;;;;;5104997;28;20073;-66
2023/01/27 12:52:20;;;;;;;39.38;14.43;;;7.90;57.70;;;;;;5104224;28;20120;-65
2023/01/27 12:54:50;;;;;;;36.75;14.27;;;7.80;57.70;;;;;;5111021;28;20093;-67
2023/01/27 12:57:19;;;;;;;45.88;15.82;;;7.80;58.10;;;;;;5106631;28;20450;-67
2023/01/27 12:59:57;;;;;;;46.63;15.30;;;7.80;58.40;;;;;;5103890;28;20113;-68
2023/01/27 13:02:26;;;;;;;35.55;14.82;;;7.80;58.00;;;;;;5105118;28;20564;-65
2023/01/27 13:05:01;;;;;;;43.03;14.38;;;7.70;58.10;;;;;;5107890;28;20496;-66
2023/01/27 13:07:51;;;;;;;44.08;14.48;;;7.70;58.20;;;;;;5107204;28;20069;-66
2023/01/27 13:10:26;;;;;;;44.85;15.82;;;7.60;58.20;;;;;;5107739;28;20587;-65
2023/01/27 13:12:54;;;;;;;40.70;14.20;;;7.70;58.70;;;;;;5106443;28;20159;-68
2023/01/27 13:15:27;;;;;;;40.80;15.38;;;7.70;58.60;;;;;;5106237;28;20072;-66
2023/01/27 13:17:58;;;;;;;43.17;15.45;;;7.70;58.50;;;;;;5107922;28;20066;-66
2023/01/27 13:20:34;;;;;;;34.92;13.23;;;7.70;58.20;;;;;;5105722;27;20071;-68
2023/01/27 13:23:33;;;;;;;34.95;14.90;;;7.70;58.30;;;;;;5105443;28;20078;-68
2023/01/27 13:26:11;;;;;;;34.08;14.07;;;7.70;58.80;;;;;;5103689;28;20142;-65
2023/01/27 13:28:41;;;;;;;40.50;14.98;;;7.70;58.90;;;;;;5105243;28;20546;-67
2023/01/27 13:31:15;;;;;;;39.85;14.60;;;7.60;58.50;;;;;;5106413;28;20077;-67
2023/01/27 13:33:53;;;;;;;48.25;15.27;;;7.60;58.40;;;;;;5100737;28;20432;-66
2023/01/27 13:36:52;;;;;;;52.30;14.80;;;7.50;58.40;;;;;;5097074;28;20078;-67
2023/01/27 13:39:47;;;;;;;46.88;14.43;;;7.50;58.30;;;;;;5102278;28;20555;-65